Time;durP1;ratioP1;P1;durP2;ratioP2;P2;SDS_P1;SDS_P2;PMS_P1;PMS_P2;Temp;Humidity;BMP_temperature;BMP_pressure;BME280_temperature;BME280_humidity;BME280_pressure;Samples;Min_cycle;Max_cycle;Signal;HPM_P1;HPM_P2
2023/11/24 00:01:59;;;;;;;15.27;14.77;;;8.80;99.90;;;;;;5079796;28;20892;-73
2023/11/24 00:04:26;;;;;;;14.50;14.00;;;8.80;99.90;;;;;;5080000;28;20502;-73
2023/11/24 00:06:53;;;;;;;13.33;12.93;;;8.80;99.90;;;;;;5086419;28;20486;-70
2023/11/24 00:09:20;;;;;;;13.33;12.93;;;8.80;99.90;;;;;;5077547;28;20659;-71
2023/11/24 00:11:47;;;;;;;11.90;11.60;;;8.90;99.90;;;;;;5086219;28;20815;-72
2023/11/24 00:14:15;;;;;;;12.60;12.20;;;8.80;99.90;;;;;;5081156;28;20486;-73
2023/11/24 00:16:41;;;;;;;12.33;11.93;;;8.80;99.90;;;;;;5078959;28;20466;-72
2023/11/24 00:19:13;;;;;;;12.87;12.47;;;8.80;99.90;;;;;;5087981;28;20482;-72
2023/11/24 00:21:40;;;;;;;12.80;12.40;;;8.80;99.90;;;;;;5080009;28;20501;-71
2023/11/24 00:24:08;;;;;;;13.83;13.33;;;8.80;99.90;;;;;;5081132;28;20486;-71
2023/11/24 00:26:35;;;;;;;13.70;13.20;;;8.80;99.90;;;;;;5076190;28;20494;-70
2023/11/24 00:29:02;;;;;;;14.33;13.83;;;8.80;99.90;;;;;;5070328;28;20463;-70
2023/11/24 00:31:29;;;;;;;14.23;13.73;;;8.80;99.90;;;;;;5084656;28;20454;-72
2023/11/24 00:33:57;;;;;;;13.93;13.43;;;8.80;99.90;;;;;;5083430;28;20497;-72
2023/11/24 00:36:25;;;;;;;14.50;13.90;;;8.80;99.90;;;;;;5077941;28;20580;-71
2023/11/24 00:38:52;;;;;;;14.43;13.83;;;8.80;99.90;;;;;;5072257;28;20463;-69
2023/11/24 00:41:20;;;;;;;14.70;14.10;;;8.80;99.90;;;;;;5077069;28;20946;-73
2023/11/24 00:43:48;;;;;;;15.30;14.70;;;8.80;99.90;;;;;;5080511;28;20473;-70
2023/11/24 00:46:18;;;;;;;15.20;14.60;;;8.80;99.90;;;;;;5088690;28;21083;-70
2023/11/24 00:48:45;;;;;;;15.03;14.43;;;8.90;99.90;;;;;;5084855;28;20996;-72
2023/11/24 00:51:12;;;;;;;15.50;14.90;;;8.90;99.90;;;;;;5083671;28;20476;-72
2023/11/24 00:53:40;;;;;;;15.20;14.60;;;9.00;99.90;;;;;;5073933;28;20516;-72
2023/11/24 00:56:08;;;;;;;14.70;14.20;;;9.00;99.90;;;;;;5074033;28;20536;-72
2023/11/24 00:58:35;;;;;;;14.40;13.87;;;8.90;99.90;;;;;;5076699;28;20489;-71
2023/11/24 01:01:02;;;;;;;14.50;14.00;;;8.90;99.90;;;;;;5078889;28;20961;-72
2023/11/24 01:03:30;;;;;;;13.43;12.93;;;8.90;99.90;;;;;;5075255;28;20467;-71
2023/11/24 01:05:57;;;;;;;13.60;13.10;;;8.90;99.90;;;;;;5085111;28;20842;-71
2023/11/24 01:08:25;;;;;;;13.50;13.00;;;8.80;99.90;;;;;;5074579;28;20467;-72
2023/11/24 01:10:56;;;;;;;13.10;12.70;;;8.80;99.90;;;;;;5082664;28;20864;-70
2023/11/24 01:13:23;;;;;;;12.53;12.13;;;8.80;99.90;;;;;;5074622;28;20567;-72
2023/11/24 01:15:50;;;;;;;11.43;11.13;;;8.80;99.90;;;;;;5076859;28;20686;-71
2023/11/24 01:18:18;;;;;;;10.47;10.27;;;8.80;99.90;;;;;;5091411;28;20481;-71
2023/11/24 01:20:45;;;;;;;10.17;9.97;;;8.80;99.90;;;;;;5077020;28;20486;-71
2023/11/24 01:23:13;;;;;;;9.67;9.47;;;8.80;99.90;;;;;;5079442;28;20464;-71
2023/11/24 01:25:39;;;;;;;9.70;9.50;;;8.80;99.90;;;;;;5079541;28;20478;-72
2023/11/24 01:28:07;;;;;;;9.60;9.40;;;8.80;99.90;;;;;;5075464;28;20577;-73
2023/11/24 01:30:34;;;;;;;10.33;10.13;;;8.80;99.90;;;;;;5077215;28;20546;-71
2023/11/24 01:33:01;;;;;;;10.07;9.87;;;8.80;99.90;;;;;;5076510;28;20860;-70
2023/11/24 01:35:29;;;;;;;10.77;10.47;;;8.70;99.90;;;;;;5076947;28;20462;-73
2023/11/24 01:37:59;;;;;;;10.87;10.57;;;8.70;99.90;;;;;;5074149;28;20463;-73
2023/11/24 01:40:26;;;;;;;10.10;9.90;;;8.60;99.90;;;;;;5079494;28;20531;-71
2023/11/24 01:42:53;;;;;;;10.00;9.80;;;8.50;99.90;;;;;;5080124;28;20511;-73
2023/11/24 01:45:22;;;;;;;10.10;9.90;;;8.50;99.90;;;;;;5074917;28;20471;-69
2023/11/24 01:47:48;;;;;;;10.30;10.10;;;8.50;99.90;;;;;;5078323;28;20566;-72
2023/11/24 01:50:16;;;;;;;10.50;10.30;;;8.50;99.90;;;;;;5082896;28;20458;-73
2023/11/24 01:52:43;;;;;;;9.80;9.60;;;8.60;99.90;;;;;;5075522;28;20463;-72
2023/11/24 01:55:13;;;;;;;10.10;9.90;;;8.60;99.90;;;;;;5076037;28;20573;-72
2023/11/24 01:57:41;;;;;;;10.03;9.83;;;8.60;99.90;;;;;;5075220;28;20485;-72
2023/11/24 02:00:12;;;;;;;10.33;10.13;;;8.60;99.90;;;;;;5075773;28;20455;-71
2023/11/24 02:02:41;;;;;;;11.80;11.50;;;8.60;99.90;;;;;;5084966;28;20448;-70
2023/11/24 02:05:09;;;;;;;14.97;14.37;;;8.60;99.90;;;;;;5080456;28;20547;-69
2023/11/24 02:07:37;;;;;;;15.90;15.20;;;8.50;99.90;;;;;;5076532;28;20578;-70
2023/11/24 02:10:06;;;;;;;16.00;15.30;;;8.40;99.90;;;;;;5073393;28;20454;-70
2023/11/24 02:12:32;;;;;;;16.33;15.60;;;8.10;99.90;;;;;;5070272;28;21030;-71
2023/11/24 02:14:59;;;;;;;16.30;15.60;;;8.10;99.90;;;;;;5080134;28;20458;-72
2023/11/24 02:17:27;;;;;;;16.67;15.87;;;7.90;99.90;;;;;;5082123;28;20489;-70
2023/11/24 02:19:57;;;;;;;17.10;16.30;;;7.80;99.90;;;;;;5082846;28;20447;-69
2023/11/24 02:22:23;;;;;;;17.60;16.70;;;7.60;99.90;;;;;;5075791;28;20507;-71
2023/11/24 02:24:52;;;;;;;17.80;16.90;;;7.50;99.90;;;;;;5068443;28;20523;-70
2023/11/24 02:27:20;;;;;;;17.40;16.50;;;7.50;99.90;;;;;;5066234;28;20602;-71
2023/11/24 02:29:48;;;;;;;17.43;16.53;;;7.30;99.90;;;;;;5066449;28;20451;-70
2023/11/24 02:32:15;;;;;;;16.90;16.10;;;7.20;99.90;;;;;;5055178;28;20512;-71
2023/11/24 02:34:42;;;;;;;16.47;15.67;;;7.20;99.90;;;;;;5053921;28;20463;-71
2023/11/24 02:37:09;;;;;;;16.17;15.43;;;7.10;99.90;;;;;;5066253;28;20966;-70
2023/11/24 02:39:36;;;;;;;15.47;14.77;;;7.10;99.90;;;;;;5054716;28;20463;-71
2023/11/24 02:42:05;;;;;;;14.47;13.87;;;7.10;99.90;;;;;;5050955;28;20443;-71
2023/11/24 02:44:32;;;;;;;14.60;14.00;;;7.00;99.90;;;;;;5053971;28;20487;-71
2023/11/24 02:46:59;;;;;;;14.13;13.60;;;7.10;99.90;;;;;;5059602;28;20491;-70
2023/11/24 02:49:26;;;;;;;13.87;13.37;;;7.10;99.90;;;;;;5067656;28;20845;-71
2023/11/24 02:51:54;;;;;;;13.40;12.90;;;7.10;99.90;;;;;;5051352;28;21054;-69
2023/11/24 02:54:20;;;;;;;13.20;12.80;;;7.20;99.90;;;;;;5054661;28;20498;-70
2023/11/24 02:56:47;;;;;;;13.13;12.73;;;7.20;99.90;;;;;;5057330;28;20466;-71
2023/11/24 02:59:15;;;;;;;13.03;12.63;;;7.20;99.90;;;;;;5058806;28;20974;-70
2023/11/24 03:01:42;;;;;;;13.57;13.07;;;7.20;99.90;;;;;;5059512;28;20447;-71
2023/11/24 03:04:09;;;;;;;13.80;13.30;;;7.20;99.90;;;;;;5060753;28;20481;-70
2023/11/24 03:06:41;;;;;;;13.73;13.23;;;7.20;99.90;;;;;;5061283;28;20460;-70
2023/11/24 03:09:09;;;;;;;13.80;13.30;;;7.10;99.90;;;;;;5062757;28;20462;-70
2023/11/24 03:11:36;;;;;;;13.37;12.87;;;7.10;99.90;;;;;;5053840;28;20728;-72
2023/11/24 03:14:04;;;;;;;13.40;12.90;;;7.10;99.90;;;;;;5057767;28;20452;-72
2023/11/24 03:16:32;;;;;;;13.33;12.83;;;7.00;99.90;;;;;;5061544;28;20513;-69
2023/11/24 03:18:59;;;;;;;12.93;12.53;;;7.00;99.90;;;;;;5069573;28;20473;-70
2023/11/24 03:21:27;;;;;;;12.60;12.20;;;7.00;99.90;;;;;;5059886;28;20567;-69
2023/11/24 03:23:54;;;;;;;12.93;12.53;;;7.00;99.90;;;;;;5069581;28;20485;-72
2023/11/24 03:26:21;;;;;;;12.80;12.40;;;7.00;99.90;;;;;;5082329;28;20929;-72
2023/11/24 03:28:49;;;;;;;12.80;12.40;;;7.00;99.90;;;;;;5075583;28;20494;-69
2023/11/24 03:31:15;;;;;;;11.70;11.40;;;7.10;99.90;;;;;;5084540;28;20467;-68
2023/11/24 03:33:43;;;;;;;11.63;11.33;;;7.20;99.90;;;;;;5077937;28;20554;-72
2023/11/24 03:36:11;;;;;;;11.70;11.40;;;7.30;99.90;;;;;;5080590;28;20462;-69
2023/11/24 03:38:37;;;;;;;11.10;10.80;;;7.30;99.90;;;;;;5082251;28;20551;-69
2023/11/24 03:41:05;;;;;;;11.43;11.13;;;7.40;99.90;;;;;;5078997;28;20446;-69
2023/11/24 03:43:31;;;;;;;10.90;10.60;;;7.40;99.90;;;;;;5075497;28;20464;-69
2023/11/24 03:45:59;;;;;;;10.60;10.30;;;7.40;99.90;;;;;;5079899;28;20462;-70
2023/11/24 03:48:30;;;;;;;10.87;10.57;;;7.40;99.90;;;;;;5087857;28;20509;-69
2023/11/24 03:50:59;;;;;;;11.13;10.83;;;7.40;99.90;;;;;;5078808;28;20469;-71
2023/11/24 03:53:26;;;;;;;10.43;10.23;;;7.40;99.90;;;;;;5079460;28;20565;-70
2023/11/24 03:55:52;;;;;;;11.10;10.80;;;7.40;99.90;;;;;;5080148;28;20466;-71
2023/11/24 03:58:19;;;;;;;11.07;10.77;;;7.50;99.90;;;;;;5076721;28;20466;-70
2023/11/24 04:00:46;;;;;;;11.43;11.13;;;7.50;99.90;;;;;;5082049;28;20454;-71
2023/11/24 04:03:13;;;;;;;10.93;10.63;;;7.50;99.90;;;;;;5069966;28;20547;-70
2023/11/24 04:05:42;;;;;;;11.20;10.90;;;7.40;99.90;;;;;;5078365;28;20803;-70
2023/11/24 04:08:11;;;;;;;11.00;10.70;;;7.50;99.90;;;;;;5085370;28;20893;-70
2023/11/24 04:10:38;;;;;;;11.30;11.00;;;7.60;99.90;;;;;;5087078;28;20450;-70
2023/11/24 04:13:04;;;;;;;11.23;10.93;;;7.50;99.90;;;;;;5084850;28;20462;-70
2023/11/24 04:15:31;;;;;;;11.20;10.90;;;7.50;99.90;;;;;;5089966;28;20557;-69
2023/11/24 04:17:58;;;;;;;11.50;11.20;;;7.60;99.90;;;;;;5078386;28;20492;-69
2023/11/24 04:20:25;;;;;;;11.40;11.10;;;7.60;99.90;;;;;;5083236;28;20481;-69
2023/11/24 04:22:53;;;;;;;11.20;10.90;;;7.50;99.90;;;;;;5083110;28;20479;-69
2023/11/24 04:25:21;;;;;;;11.40;11.10;;;7.50;99.90;;;;;;5084473;28;20487;-70
2023/11/24 04:27:48;;;;;;;11.60;11.30;;;7.50;99.90;;;;;;5077613;28;20516;-69
2023/11/24 04:30:16;;;;;;;11.60;11.30;;;7.40;99.90;;;;;;5089110;28;20979;-70
2023/11/24 04:32:43;;;;;;;11.53;11.23;;;7.20;99.90;;;;;;5080094;28;20550;-69
2023/11/24 04:35:10;;;;;;;11.70;11.40;;;7.10;99.90;;;;;;5075366;28;20495;-70
2023/11/24 04:37:37;;;;;;;11.00;10.70;;;7.00;99.90;;;;;;5085392;28;20470;-70
2023/11/24 04:40:05;;;;;;;11.50;11.20;;;6.90;99.90;;;;;;5086555;28;20815;-70
2023/11/24 04:42:33;;;;;;;10.93;10.63;;;6.90;99.90;;;;;;5079870;28;20459;-69
2023/11/24 04:45:00;;;;;;;11.00;10.70;;;6.80;99.90;;;;;;5071964;28;20474;-69
2023/11/24 04:47:27;;;;;;;10.27;10.07;;;6.70;99.90;;;;;;5084820;28;21000;-70
2023/11/24 04:49:54;;;;;;;9.77;9.57;;;6.60;99.90;;;;;;5074439;28;20969;-69
2023/11/24 04:52:21;;;;;;;9.80;9.60;;;6.50;99.90;;;;;;5084011;28;20467;-69
2023/11/24 04:54:47;;;;;;;9.90;9.70;;;6.50;99.90;;;;;;5082964;28;20819;-69
2023/11/24 04:57:14;;;;;;;9.43;9.23;;;6.50;99.90;;;;;;5082634;28;20462;-69
2023/11/24 04:59:43;;;;;;;9.37;9.17;;;6.50;99.90;;;;;;5079476;28;20888;-69
2023/11/24 05:02:10;;;;;;;9.37;9.17;;;6.40;99.90;;;;;;5077495;28;20468;-70
2023/11/24 05:04:37;;;;;;;9.63;9.43;;;6.50;99.90;;;;;;5077782;28;20491;-72
2023/11/24 05:07:04;;;;;;;10.00;9.80;;;6.60;99.90;;;;;;5080328;28;20515;-71
2023/11/24 05:09:31;;;;;;;9.80;9.60;;;6.70;99.90;;;;;;5075741;28;20979;-73
2023/11/24 05:11:59;;;;;;;9.87;9.67;;;6.80;99.90;;;;;;5077593;28;20968;-69
2023/11/24 05:14:25;;;;;;;10.00;9.80;;;6.80;99.90;;;;;;5078702;28;20458;-70
2023/11/24 05:16:53;;;;;;;10.43;10.13;;;6.90;99.90;;;;;;5080832;28;20458;-73
2023/11/24 05:19:20;;;;;;;10.30;10.10;;;6.90;99.90;;;;;;5080383;28;20454;-72
2023/11/24 05:21:47;;;;;;;10.00;9.80;;;7.00;99.90;;;;;;5069716;28;20470;-70
2023/11/24 05:24:16;;;;;;;10.07;9.87;;;7.00;99.90;;;;;;5079474;28;20474;-72
2023/11/24 05:26:43;;;;;;;10.10;9.90;;;7.10;99.90;;;;;;5079159;28;20466;-70
2023/11/24 05:29:10;;;;;;;10.20;10.00;;;7.10;99.90;;;;;;5073297;28;20521;-70
2023/11/24 05:31:36;;;;;;;10.13;9.93;;;7.10;99.90;;;;;;5089777;28;20453;-70
2023/11/24 05:34:05;;;;;;;10.23;10.03;;;7.10;99.90;;;;;;5075454;28;20480;-69
2023/11/24 05:36:33;;;;;;;10.27;10.07;;;7.10;99.90;;;;;;5075120;28;20486;-69
2023/11/24 05:39:00;;;;;;;10.50;10.27;;;7.10;99.90;;;;;;5074063;28;20954;-72
2023/11/24 05:41:27;;;;;;;10.20;10.00;;;7.00;99.90;;;;;;5067627;28;20864;-72
2023/11/24 05:43:53;;;;;;;10.17;9.97;;;7.00;99.90;;;;;;5072744;28;20471;-71
2023/11/24 05:46:20;;;;;;;10.37;10.17;;;6.90;99.90;;;;;;5082868;28;20466;-71
2023/11/24 05:48:48;;;;;;;10.20;10.00;;;6.90;99.90;;;;;;5076847;28;20483;-69
2023/11/24 05:51:16;;;;;;;9.73;9.53;;;6.80;99.90;;;;;;5073457;28;20471;-70
2023/11/24 05:53:43;;;;;;;10.27;10.07;;;6.80;99.90;;;;;;5077767;28;21162;-70
2023/11/24 05:56:10;;;;;;;10.00;9.80;;;6.80;99.90;;;;;;5077014;28;20536;-72
2023/11/24 05:58:37;;;;;;;10.47;10.27;;;6.90;99.90;;;;;;5080086;28;20502;-73
2023/11/24 06:01:04;;;;;;;9.93;9.73;;;6.90;99.90;;;;;;5068810;28;20857;-72
2023/11/24 06:03:31;;;;;;;10.77;10.47;;;7.00;99.90;;;;;;5076807;28;20494;-73
2023/11/24 06:05:59;;;;;;;10.27;10.07;;;6.90;99.90;;;;;;5072823;28;20544;-73
2023/11/24 06:08:28;;;;;;;10.30;10.10;;;6.90;99.90;;;;;;5078830;28;20493;-71
2023/11/24 06:10:55;;;;;;;10.37;10.17;;;7.00;99.90;;;;;;5077786;28;20929;-73
2023/11/24 06:13:22;;;;;;;10.50;10.30;;;7.00;99.90;;;;;;5066243;28;20460;-73
2023/11/24 06:15:48;;;;;;;10.40;10.20;;;7.00;99.90;;;;;;5081070;28;20457;-74
2023/11/24 06:18:16;;;;;;;10.03;9.83;;;7.00;99.90;;;;;;5079525;28;20488;-70
2023/11/24 06:20:43;;;;;;;10.20;10.00;;;7.00;99.90;;;;;;5074932;28;21051;-72
2023/11/24 06:23:09;;;;;;;10.60;10.30;;;7.00;99.90;;;;;;5075455;28;20501;-72
2023/11/24 06:25:37;;;;;;;10.60;10.30;;;7.00;99.90;;;;;;5062755;28;20487;-72
2023/11/24 06:28:05;;;;;;;10.23;10.03;;;7.00;99.90;;;;;;5054042;28;20692;-69
2023/11/24 06:30:33;;;;;;;9.77;9.57;;;6.80;99.90;;;;;;5060723;28;20487;-73
2023/11/24 06:33:00;;;;;;;9.90;9.70;;;6.80;99.90;;;;;;5058239;28;20491;-73
2023/11/24 06:35:27;;;;;;;9.40;9.20;;;6.80;99.90;;;;;;5061903;28;20466;-70
2023/11/24 06:37:54;;;;;;;9.70;9.50;;;6.80;99.90;;;;;;5066703;28;20838;-71
2023/11/24 06:40:24;;;;;;;9.50;9.30;;;6.80;99.90;;;;;;5058668;28;20470;-71
2023/11/24 06:42:52;;;;;;;8.93;8.73;;;6.90;99.90;;;;;;5058333;28;20456;-70
2023/11/24 06:45:19;;;;;;;8.63;8.53;;;6.90;99.90;;;;;;5060028;28;20459;-69
2023/11/24 06:47:46;;;;;;;8.47;8.37;;;6.90;99.90;;;;;;5066696;28;20847;-72
2023/11/24 06:50:13;;;;;;;8.50;8.40;;;6.90;99.90;;;;;;5055153;28;20469;-73
2023/11/24 06:52:39;;;;;;;8.47;8.37;;;6.90;99.90;;;;;;5062088;28;20509;-69
2023/11/24 06:55:07;;;;;;;9.50;9.30;;;6.90;99.90;;;;;;5060880;28;20517;-72
2023/11/24 06:57:34;;;;;;;9.83;9.63;;;7.00;99.90;;;;;;5067636;28;20456;-71
2023/11/24 07:00:05;;;;;;;10.10;9.90;;;7.00;99.90;;;;;;5057750;28;20475;-68
2023/11/24 07:02:32;;;;;;;10.20;10.00;;;7.00;99.90;;;;;;5055846;28;20468;-69
2023/11/24 07:04:59;;;;;;;10.53;10.23;;;6.90;99.90;;;;;;5060763;28;20466;-69
2023/11/24 07:07:28;;;;;;;9.80;9.60;;;6.90;99.90;;;;;;5064005;28;20459;-70
2023/11/24 07:09:56;;;;;;;9.37;9.17;;;6.90;99.90;;;;;;5061376;28;20499;-72
2023/11/24 07:12:23;;;;;;;8.57;8.47;;;6.90;99.90;;;;;;5064818;28;20466;-72
2023/11/24 07:14:50;;;;;;;8.83;8.63;;;6.90;99.90;;;;;;5060330;28;20466;-69
2023/11/24 07:17:18;;;;;;;8.40;8.30;;;6.90;99.90;;;;;;5054621;28;20501;-72
2023/11/24 07:19:45;;;;;;;8.30;8.20;;;7.00;99.90;;;;;;5064528;28;20475;-73
2023/11/24 07:22:12;;;;;;;7.73;7.63;;;7.00;99.90;;;;;;5054426;28;20542;-73
2023/11/24 07:24:39;;;;;;;7.83;7.73;;;7.00;99.90;;;;;;5062538;28;20488;-71
2023/11/24 07:27:06;;;;;;;7.90;7.80;;;7.00;99.90;;;;;;5058663;28;20860;-72
2023/11/24 07:29:33;;;;;;;9.40;9.20;;;7.10;99.90;;;;;;5064573;28;20483;-71
2023/11/24 07:32:02;;;;;;;11.40;11.10;;;7.10;99.90;;;;;;5057162;28;20468;-70
2023/11/24 07:34:31;;;;;;;16.90;16.10;;;7.10;99.90;;;;;;5056244;28;20950;-69
2023/11/24 07:37:00;;;;;;;15.57;14.87;;;6.90;99.90;;;;;;5065072;28;20503;-71
2023/11/24 07:39:28;;;;;;;14.60;14.00;;;6.80;99.90;;;;;;5059402;28;20466;-71
2023/11/24 07:41:58;;;;;;;14.20;13.70;;;6.60;99.90;;;;;;5059520;28;21278;-71
2023/11/24 07:44:27;;;;;;;13.13;12.73;;;6.60;99.90;;;;;;5054439;28;20593;-72
2023/11/24 07:46:53;;;;;;;13.00;12.60;;;6.50;99.90;;;;;;5063409;28;20452;-73
2023/11/24 07:49:20;;;;;;;12.73;12.33;;;6.20;99.90;;;;;;5057696;28;20503;-72
2023/11/24 07:51:48;;;;;;;13.20;12.80;;;6.20;99.90;;;;;;5060245;28;20466;-74
2023/11/24 07:54:15;;;;;;;13.00;12.60;;;6.10;99.90;;;;;;5052215;28;20928;-74
2023/11/24 07:56:42;;;;;;;12.67;12.27;;;6.10;99.90;;;;;;5051141;28;20470;-72
2023/11/24 07:59:11;;;;;;;12.60;12.20;;;6.10;99.90;;;;;;5057778;28;20482;-70
2023/11/24 08:01:39;;;;;;;12.90;12.50;;;6.10;99.90;;;;;;5053245;28;20497;-70
2023/11/24 08:04:06;;;;;;;12.90;12.50;;;6.10;99.90;;;;;;5050535;28;20471;-72
2023/11/24 08:06:33;;;;;;;13.50;13.10;;;6.10;99.90;;;;;;5049821;28;20494;-72
2023/11/24 08:09:04;;;;;;;12.50;12.10;;;6.20;99.90;;;;;;5050309;28;20588;-72
2023/11/24 08:11:32;;;;;;;12.93;12.53;;;6.10;99.90;;;;;;5056026;28;20550;-72
2023/11/24 08:13:58;;;;;;;12.50;12.10;;;6.10;99.90;;;;;;5055820;28;20983;-71
2023/11/24 08:16:25;;;;;;;12.90;12.50;;;6.10;99.90;;;;;;5053161;28;20472;-69
2023/11/24 08:18:52;;;;;;;13.20;12.80;;;6.10;99.90;;;;;;5057131;28;20490;-72
2023/11/24 08:21:19;;;;;;;12.73;12.33;;;6.10;99.90;;;;;;5056825;28;20464;-69
2023/11/24 08:23:46;;;;;;;12.87;12.47;;;6.20;99.90;;;;;;5058021;28;20574;-72
2023/11/24 08:26:17;;;;;;;12.90;12.50;;;6.10;99.90;;;;;;5078334;28;20515;-70
2023/11/24 08:28:44;;;;;;;12.20;11.80;;;6.20;99.90;;;;;;5073719;28;20577;-70
2023/11/24 08:31:16;;;;;;;12.60;12.20;;;6.20;99.90;;;;;;5079277;28;20500;-71
2023/11/24 08:33:44;;;;;;;13.20;12.80;;;6.10;99.90;;;;;;5074872;28;20558;-71
2023/11/24 08:36:12;;;;;;;12.90;12.50;;;6.10;99.90;;;;;;5077907;28;20465;-71
2023/11/24 08:38:39;;;;;;;12.70;12.30;;;6.10;99.90;;;;;;5078482;28;20463;-69
2023/11/24 08:41:13;;;;;;;12.90;12.50;;;6.10;99.90;;;;;;5076539;28;20470;-72
2023/11/24 08:43:41;;;;;;;13.63;13.13;;;6.20;99.90;;;;;;5077357;28;20491;-72
2023/11/24 08:46:09;;;;;;;13.93;13.43;;;6.40;99.90;;;;;;5075446;28;20467;-72
2023/11/24 08:48:36;;;;;;;14.07;13.57;;;6.50;99.90;;;;;;5072743;28;20970;-72
2023/11/24 08:51:04;;;;;;;14.93;14.33;;;6.60;99.90;;;;;;5072170;28;20780;-71
2023/11/24 08:53:31;;;;;;;15.30;14.67;;;6.60;99.90;;;;;;5076488;28;20465;-72
2023/11/24 08:55:57;;;;;;;15.37;14.70;;;6.50;99.90;;;;;;5072851;28;20891;-71
2023/11/24 08:58:26;;;;;;;15.77;15.07;;;6.60;99.90;;;;;;5075440;28;20465;-70
2023/11/24 09:00:54;;;;;;;15.60;14.90;;;6.50;99.90;;;;;;5074825;28;20469;-73
2023/11/24 09:03:24;;;;;;;15.50;14.80;;;6.60;99.90;;;;;;5075731;28;20582;-72
2023/11/24 09:05:52;;;;;;;15.70;15.00;;;6.60;99.90;;;;;;5073849;28;20551;-73
2023/11/24 09:08:19;;;;;;;15.37;14.67;;;6.60;99.90;;;;;;5076492;28;20561;-71
2023/11/24 09:10:47;;;;;;;16.27;15.53;;;6.70;99.90;;;;;;5071901;28;20462;-71
2023/11/24 09:13:14;;;;;;;16.50;15.70;;;6.80;99.90;;;;;;5075779;28;20462;-71
2023/11/24 09:15:42;;;;;;;16.40;15.60;;;6.80;99.90;;;;;;5071426;28;20515;-73
2023/11/24 09:18:11;;;;;;;16.97;16.17;;;6.80;99.90;;;;;;5072918;28;20574;-73
2023/11/24 09:20:38;;;;;;;17.40;16.50;;;6.80;99.90;;;;;;5069757;28;20469;-71
2023/11/24 09:23:05;;;;;;;16.80;16.00;;;6.80;99.90;;;;;;5071961;28;21024;-71
2023/11/24 09:25:32;;;;;;;17.27;16.43;;;6.70;99.90;;;;;;5071889;28;20489;-71
2023/11/24 09:27:59;;;;;;;17.50;16.60;;;6.70;99.90;;;;;;5075801;28;21140;-71
2023/11/24 09:30:26;;;;;;;16.43;15.63;;;6.70;99.90;;;;;;5075310;28;20490;-72
2023/11/24 09:32:54;;;;;;;15.60;14.90;;;6.60;99.90;;;;;;5075105;28;20465;-71
2023/11/24 09:35:23;;;;;;;15.30;14.60;;;6.60;99.90;;;;;;5075141;28;20542;-71
2023/11/24 09:37:52;;;;;;;14.87;14.27;;;6.60;99.90;;;;;;5072467;28;20580;-71
2023/11/24 09:40:22;;;;;;;14.37;13.77;;;6.70;99.90;;;;;;5072123;28;20470;-71
2023/11/24 09:42:50;;;;;;;13.73;13.23;;;6.60;99.90;;;;;;5071494;28;20505;-70
2023/11/24 09:45:19;;;;;;;13.50;13.00;;;6.60;99.90;;;;;;5075653;28;21002;-70
2023/11/24 09:47:49;;;;;;;13.90;13.40;;;6.70;99.90;;;;;;5075867;28;20474;-70
2023/11/24 09:50:18;;;;;;;13.13;12.63;;;6.70;99.90;;;;;;5071444;28;20526;-71
2023/11/24 09:52:50;;;;;;;13.20;12.70;;;6.60;99.90;;;;;;5074072;28;20469;-72
2023/11/24 09:55:17;;;;;;;13.50;13.00;;;6.60;99.90;;;;;;5069562;28;22285;-72
2023/11/24 09:57:46;;;;;;;13.93;13.40;;;6.60;99.90;;;;;;5075131;28;20557;-71
2023/11/24 10:00:15;;;;;;;13.60;13.10;;;6.50;99.90;;;;;;5076138;28;20988;-70
2023/11/24 10:02:42;;;;;;;14.07;13.47;;;6.40;99.90;;;;;;5069629;28;20556;-71
2023/11/24 10:05:17;;;;;;;13.57;13.07;;;6.30;99.90;;;;;;5073016;28;20888;-69
2023/11/24 10:07:48;;;;;;;13.50;13.00;;;6.20;99.90;;;;;;5073806;28;20455;-71
2023/11/24 10:10:22;;;;;;;13.00;12.50;;;6.20;99.90;;;;;;5075950;28;20494;-71
2023/11/24 10:12:50;;;;;;;13.00;12.50;;;6.30;99.90;;;;;;5070471;28;20832;-71
2023/11/24 10:15:17;;;;;;;12.60;12.20;;;6.20;99.90;;;;;;5070571;28;20462;-71
2023/11/24 10:17:48;;;;;;;12.17;11.77;;;6.20;99.90;;;;;;5076102;28;20585;-70
2023/11/24 10:20:18;;;;;;;11.37;11.07;;;6.30;99.90;;;;;;5075758;28;21000;-71
2023/11/24 10:22:49;;;;;;;11.97;11.57;;;6.30;99.90;;;;;;5065766;28;21190;-71
2023/11/24 10:25:20;;;;;;;11.33;11.03;;;6.30;99.90;;;;;;5073802;28;20486;-69
2023/11/24 10:27:47;;;;;;;10.90;10.60;;;6.40;99.90;;;;;;5074043;28;20829;-71
2023/11/24 10:30:17;;;;;;;11.40;11.10;;;6.30;99.90;;;;;;5076461;28;20508;-69
2023/11/24 10:32:47;;;;;;;10.40;10.13;;;6.30;99.90;;;;;;5065440;28;20921;-70
2023/11/24 10:35:15;;;;;;;10.50;10.20;;;6.30;99.90;;;;;;5071723;28;20543;-68
2023/11/24 10:37:43;;;;;;;10.40;10.13;;;6.20;99.90;;;;;;5073821;28;20494;-70
2023/11/24 10:40:15;;;;;;;9.87;9.67;;;6.20;99.90;;;;;;5072094;28;20992;-71
2023/11/24 10:42:47;;;;;;;9.80;9.60;;;6.20;99.90;;;;;;5076194;28;20884;-69
2023/11/24 10:45:19;;;;;;;10.00;9.80;;;6.10;99.90;;;;;;5069750;28;20821;-71
2023/11/24 10:47:57;;;;;;;10.00;9.80;;;6.10;99.90;;;;;;5074157;28;20467;-69
2023/11/24 10:50:27;;;;;;;9.50;9.30;;;6.00;99.90;;;;;;5071173;28;20848;-71
2023/11/24 10:53:07;;;;;;;9.60;9.40;;;6.00;99.90;;;;;;5070117;28;20467;-70
2023/11/24 10:55:37;;;;;;;9.73;9.53;;;6.00;99.90;;;;;;5077070;28;20458;-69
2023/11/24 10:58:06;;;;;;;10.13;9.93;;;6.10;99.90;;;;;;5070380;28;20994;-71
2023/11/24 11:00:36;;;;;;;10.27;10.07;;;6.10;99.90;;;;;;5075137;28;20851;-69
2023/11/24 11:03:03;;;;;;;10.10;9.90;;;6.40;99.90;;;;;;5073728;28;20459;-71
2023/11/24 11:05:42;;;;;;;10.27;10.07;;;6.90;99.90;;;;;;5073597;28;20463;-70
2023/11/24 11:08:18;;;;;;;10.80;10.50;;;7.20;99.90;;;;;;5074650;28;20973;-70
2023/11/24 11:11:01;;;;;;;10.93;10.63;;;7.00;99.90;;;;;;5069131;28;20490;-69
2023/11/24 11:13:30;;;;;;;10.53;10.23;;;7.30;99.90;;;;;;5074397;28;20970;-70
2023/11/24 11:15:56;;;;;;;11.07;10.77;;;7.20;99.90;;;;;;5072085;28;20983;-71
2023/11/24 11:18:25;;;;;;;11.20;10.90;;;7.40;99.90;;;;;;5070995;28;20927;-72
2023/11/24 11:20:52;;;;;;;11.60;11.30;;;7.60;99.90;;;;;;5071842;28;20470;-70
2023/11/24 11:23:19;;;;;;;12.17;11.77;;;7.70;99.90;;;;;;5073536;28;20512;-70
2023/11/24 11:25:50;;;;;;;12.60;12.20;;;7.60;99.90;;;;;;5072983;28;20840;-70
2023/11/24 11:28:46;;;;;;;12.47;12.07;;;7.40;99.90;;;;;;5068210;28;20454;-70
2023/11/24 11:31:32;;;;;;;12.30;11.90;;;7.10;99.90;;;;;;5074776;28;20505;-70
2023/11/24 11:34:12;;;;;;;12.00;11.70;;;7.00;99.90;;;;;;5074181;28;20466;-70
2023/11/24 11:36:53;;;;;;;13.30;12.90;;;6.90;99.90;;;;;;5072634;28;20463;-69
2023/11/24 11:39:27;;;;;;;12.73;12.33;;;6.80;99.90;;;;;;5074647;28;20576;-72
2023/11/24 11:41:56;;;;;;;13.20;12.80;;;6.90;99.90;;;;;;5071860;28;20599;-71
2023/11/24 11:44:33;;;;;;;12.67;12.27;;;7.00;99.90;;;;;;5069587;28;20467;-72
2023/11/24 11:47:24;;;;;;;12.80;12.40;;;7.50;99.90;;;;;;5074793;28;20527;-71
2023/11/24 11:49:55;;;;;;;12.53;12.13;;;7.80;99.90;;;;;;5075015;28;20830;-72
2023/11/24 11:52:24;;;;;;;13.40;13.00;;;8.50;99.90;;;;;;5072635;28;20467;-71
2023/11/24 11:54:52;;;;;;;13.93;13.43;;;8.50;99.90;;;;;;5075030;28;20463;-69
2023/11/24 11:57:21;;;;;;;13.90;13.40;;;8.60;99.90;;;;;;5072164;28;20455;-72
2023/11/24 11:59:49;;;;;;;14.20;13.70;;;8.60;99.90;;;;;;5078958;28;20459;-69
2023/11/24 12:02:20;;;;;;;14.00;13.50;;;8.50;99.90;;;;;;5077633;28;20458;-70
2023/11/24 12:04:47;;;;;;;14.00;13.50;;;8.20;99.90;;;;;;5077498;28;20470;-69
2023/11/24 12:07:15;;;;;;;14.93;14.33;;;8.00;99.90;;;;;;5073751;28;20589;-71
2023/11/24 12:09:42;;;;;;;14.60;14.10;;;7.70;99.90;;;;;;5075905;28;20584;-69
2023/11/24 12:12:10;;;;;;;14.87;14.37;;;7.80;99.90;;;;;;5073618;28;20470;-69
2023/11/24 12:14:41;;;;;;;14.20;13.70;;;7.80;99.90;;;;;;5076298;28;20474;-70
2023/11/24 12:17:10;;;;;;;13.77;13.30;;;7.80;99.90;;;;;;5075947;28;20548;-71
2023/11/24 12:19:38;;;;;;;14.40;13.90;;;7.60;99.90;;;;;;5073333;28;20561;-71
2023/11/24 12:22:06;;;;;;;15.07;14.57;;;7.30;99.90;;;;;;5075510;28;20473;-68
2023/11/24 12:24:36;;;;;;;14.40;13.90;;;7.10;99.90;;;;;;5072332;28;20493;-73
2023/11/24 12:27:03;;;;;;;14.73;14.23;;;7.00;99.90;;;;;;5075036;28;20915;-71
2023/11/24 12:29:30;;;;;;;14.30;13.80;;;7.00;99.90;;;;;;5071029;28;20528;-71
2023/11/24 12:31:59;;;;;;;14.80;14.30;;;7.00;99.90;;;;;;5076365;28;20454;-69
2023/11/24 12:34:29;;;;;;;14.70;14.20;;;7.00;99.90;;;;;;5075052;28;20568;-69
2023/11/24 12:36:56;;;;;;;14.57;14.07;;;7.00;99.90;;;;;;5074651;28;20615;-72
2023/11/24 12:39:30;;;;;;;16.50;15.80;;;7.00;99.90;;;;;;5070882;28;20458;-68
2023/11/24 12:41:58;;;;;;;16.40;15.70;;;6.80;99.90;;;;;;5075681;28;20991;-70
2023/11/24 12:44:26;;;;;;;15.70;15.00;;;6.30;99.90;;;;;;5070691;28;20470;-68
2023/11/24 12:47:10;;;;;;;16.00;15.30;;;6.00;99.90;;;;;;5077003;28;20476;-69